createdAt,value
2019-02-24T00:02:03.507Z,85.61
2019-02-24T00:05:09.959Z,85.83
2019-02-24T00:08:16.851Z,86.24
2019-02-24T00:11:23.435Z,86.15
2019-02-24T00:14:29.758Z,86.73
2019-02-24T00:17:36.366Z,86.20
2019-02-24T00:20:42.840Z,86.49
2019-02-24T00:23:49.207Z,86.40
2019-02-24T00:26:55.600Z,86.39
2019-02-24T00:30:02.217Z,87.05
2019-02-24T00:33:08.733Z,86.91
2019-02-24T00:36:15.376Z,86.95
2019-02-24T00:39:21.680Z,86.77
2019-02-24T00:42:28.329Z,87.05
2019-02-24T00:45:34.767Z,87.71
2019-02-24T00:48:41.188Z,87.71
2019-02-24T00:51:47.450Z,88.26
2019-02-24T00:54:53.886Z,88.37
2019-02-24T00:58:01.278Z,87.76
2019-02-24T01:01:07.678Z,87.85
2019-02-24T01:04:14.215Z,88.20
2019-02-24T01:07:20.613Z,87.74
2019-02-24T01:10:29.053Z,88.60
2019-02-24T01:13:35.700Z,88.04
2019-02-24T01:16:43.072Z,87.93
2019-02-24T01:19:49.534Z,87.74
2019-02-24T01:22:55.877Z,87.33
2019-02-24T01:26:02.330Z,86.99
2019-02-24T01:29:08.738Z,87.04
2019-02-24T01:32:15.230Z,87.87
2019-02-24T01:35:21.614Z,88.21
2019-02-24T01:38:28.076Z,87.48
2019-02-24T01:41:34.490Z,87.26
2019-02-24T01:44:40.919Z,87.21
2019-02-24T01:47:47.279Z,87.48
2019-02-24T01:50:53.739Z,87.25
2019-02-24T01:54:00.090Z,87.85
2019-02-24T01:57:06.580Z,87.14
2019-02-24T02:00:13.136Z,86.77
2019-02-24T02:03:19.546Z,86.56
2019-02-24T02:06:26.002Z,86.88
2019-02-24T02:09:32.499Z,86.68
2019-02-24T02:12:39.108Z,87.69
2019-02-24T02:15:45.746Z,87.28
2019-02-24T02:18:52.090Z,87.06
2019-02-24T02:21:58.379Z,87.98
2019-02-24T02:25:04.991Z,87.28
2019-02-24T02:28:11.483Z,87.33
2019-02-24T02:31:17.816Z,87.34
2019-02-24T02:34:24.345Z,87.49
2019-02-24T02:37:30.740Z,87.93
2019-02-24T02:40:37.210Z,87.41
2019-02-24T02:43:43.622Z,87.83
2019-02-24T02:46:50.508Z,88.06
2019-02-24T02:49:56.844Z,88.05
2019-02-24T02:53:03.242Z,87.77
2019-02-24T02:56:09.606Z,88.41
2019-02-24T02:59:15.995Z,87.95
2019-02-24T03:02:24.657Z,88.04
2019-02-24T03:05:30.530Z,88.03
2019-02-24T03:08:51.977Z,88.19
2019-02-24T03:11:58.462Z,88.24
2019-02-24T03:15:05.465Z,88.64
2019-02-24T03:18:13.190Z,88.25
2019-02-24T03:21:19.487Z,88.31
2019-02-24T03:24:25.920Z,88.01
2019-02-24T03:27:32.374Z,88.04
2019-02-24T03:30:38.684Z,88.47
2019-02-24T03:33:45.303Z,88.36
2019-02-24T03:36:51.698Z,88.31
2019-02-24T03:39:58.064Z,88.61
2019-02-24T03:43:04.374Z,88.53
2019-02-24T03:46:10.761Z,88.61
2019-02-24T03:49:17.207Z,88.33
2019-02-24T03:52:23.669Z,88.71
2019-02-24T03:55:30.093Z,88.63
2019-02-24T03:58:36.440Z,88.50
2019-02-24T04:01:42.735Z,88.14
2019-02-24T04:04:49.120Z,88.53
2019-02-24T04:07:55.478Z,88.85
2019-02-24T04:11:01.736Z,88.54
2019-02-24T04:14:08.120Z,88.56
2019-02-24T04:17:14.952Z,88.78
2019-02-24T04:20:21.771Z,88.67
2019-02-24T04:23:28.056Z,88.55
2019-02-24T04:26:35.430Z,88.34
2019-02-24T04:29:41.777Z,88.57
2019-02-24T04:32:48.234Z,88.46
2019-02-24T04:35:54.701Z,88.41
2019-02-24T04:39:01.173Z,88.46
2019-02-24T04:42:09.381Z,88.12
2019-02-24T04:45:15.679Z,87.98
2019-02-24T04:48:22.053Z,88.39
2019-02-24T04:51:28.573Z,88.11
2019-02-24T04:54:34.904Z,87.65
2019-02-24T04:57:41.820Z,87.80
2019-02-24T05:00:48.195Z,87.61
2019-02-24T05:03:54.561Z,87.89
2019-02-24T05:07:00.826Z,88.12
2019-02-24T05:10:07.365Z,87.93
2019-02-24T05:13:13.695Z,87.66
2019-02-24T05:16:20.050Z,87.70
2019-02-24T05:19:27.269Z,87.83
2019-02-24T05:22:33.820Z,88.09
2019-02-24T05:25:40.175Z,87.91
2019-02-24T05:28:46.564Z,87.84
2019-02-24T05:31:53.895Z,87.77
2019-02-24T05:35:00.336Z,87.92
2019-02-24T05:38:06.694Z,87.52
2019-02-24T05:41:13.101Z,87.27
2019-02-24T05:44:19.390Z,87.54
2019-02-24T05:47:25.757Z,87.76
2019-02-24T05:50:32.109Z,87.77
2019-02-24T05:53:38.897Z,87.99
2019-02-24T05:56:45.366Z,87.64
2019-02-24T05:59:55.275Z,87.93
2019-02-24T06:02:59.846Z,88.05
2019-02-24T06:06:06.123Z,87.99
2019-02-24T06:09:12.509Z,88.22
2019-02-24T06:12:19.243Z,88.06
2019-02-24T06:15:26.626Z,88.13
2019-02-24T06:18:33.003Z,88.27
2019-02-24T06:21:39.652Z,88.16
2019-02-24T06:24:46.146Z,88.14
2019-02-24T06:27:52.456Z,87.95
2019-02-24T06:30:58.942Z,87.77
2019-02-24T06:34:05.350Z,87.46
2019-02-24T06:37:11.844Z,87.69
2019-02-24T06:40:18.351Z,87.65
2019-02-24T06:43:24.899Z,87.82
2019-02-24T06:46:31.416Z,87.75
2019-02-24T06:49:38.008Z,87.74
2019-02-24T06:52:44.363Z,87.61
2019-02-24T06:55:50.748Z,87.58
2019-02-24T06:58:57.229Z,87.18
2019-02-24T07:02:03.608Z,87.13
2019-02-24T07:05:09.903Z,87.05
2019-02-24T07:08:16.862Z,87.14
2019-02-24T07:11:23.322Z,86.71
2019-02-24T07:14:29.852Z,86.92
2019-02-24T07:17:36.255Z,86.57
2019-02-24T07:20:42.561Z,86.83
2019-02-24T07:23:49.044Z,86.61
2019-02-24T07:26:55.688Z,86.61
2019-02-24T07:30:02.122Z,86.46
2019-02-24T07:33:08.551Z,86.15
2019-02-24T07:36:15.043Z,85.80
2019-02-24T07:39:21.396Z,85.79
2019-02-24T07:42:27.917Z,85.53
2019-02-24T07:45:34.474Z,85.42
2019-02-24T07:48:46.647Z,85.51
2019-02-24T07:51:53.394Z,85.50
2019-02-24T07:54:59.877Z,85.37
2019-02-24T07:58:06.385Z,85.23
2019-02-24T08:01:12.800Z,85.05
2019-02-24T08:04:19.375Z,84.62
2019-02-24T08:07:25.824Z,84.45
2019-02-24T08:10:32.285Z,84.48
2019-02-24T08:13:38.693Z,84.95
2019-02-24T08:16:45.194Z,84.82
2019-02-24T08:19:51.730Z,84.86
2019-02-24T08:22:58.494Z,84.64
2019-02-24T08:26:06.352Z,84.06
2019-02-24T08:29:17.662Z,83.78
2019-02-24T08:32:25.464Z,83.63
2019-02-24T08:35:41.172Z,82.41
2019-02-24T08:38:47.603Z,82.41
2019-02-24T08:41:54.052Z,82.15
2019-02-24T08:45:00.545Z,82.18
2019-02-24T08:48:06.823Z,81.66
2019-02-24T08:51:13.204Z,81.26
2019-02-24T08:54:19.719Z,80.47
2019-02-24T08:57:26.160Z,79.66
2019-02-24T09:00:32.584Z,78.63
2019-02-24T09:03:39.485Z,78.23
2019-02-24T09:06:45.963Z,77.78
2019-02-24T09:09:52.426Z,77.58
2019-02-24T09:12:58.908Z,77.93
2019-02-24T09:16:05.306Z,77.90
2019-02-24T09:19:11.638Z,78.37
2019-02-24T09:22:18.078Z,78.16
2019-02-24T09:25:24.481Z,77.39
2019-02-24T09:28:31.500Z,77.29
2019-02-24T09:31:38.506Z,77.05
2019-02-24T09:34:45.860Z,77.37
2019-02-24T09:37:52.229Z,77.17
2019-02-24T09:40:58.482Z,77.11
2019-02-24T09:44:05.174Z,77.04
2019-02-24T09:47:11.514Z,76.81
2019-02-24T09:50:18.284Z,77.70
2019-02-24T09:53:24.650Z,78.35
2019-02-24T09:56:30.998Z,78.13
2019-02-24T09:59:37.419Z,78.86
2019-02-24T10:02:43.920Z,79.10
2019-02-24T10:05:52.873Z,79.11
2019-02-24T10:09:01.866Z,78.69
2019-02-24T10:12:11.386Z,78.70
2019-02-24T10:15:18.002Z,78.46
2019-02-24T10:18:27.149Z,78.35
2019-02-24T10:21:40.416Z,77.76
2019-02-24T10:24:47.020Z,78.44
2019-02-24T10:27:53.486Z,77.65
2019-02-24T10:31:01.531Z,76.93
2019-02-24T10:34:10.590Z,77.96
2019-02-24T10:37:17.118Z,79.09
2019-02-24T10:40:23.701Z,78.94
2019-02-24T10:43:30.045Z,79.31
2019-02-24T10:46:36.476Z,79.08
2019-02-24T10:49:43.116Z,79.36
2019-02-24T10:52:49.516Z,79.56
2019-02-24T10:55:55.867Z,79.60
2019-02-24T10:59:02.735Z,79.72
2019-02-24T11:02:09.320Z,78.81
2019-02-24T11:05:16.159Z,78.49
2019-02-24T11:08:23.153Z,78.36
2019-02-24T11:11:29.640Z,77.93
2019-02-24T11:14:35.977Z,77.42
2019-02-24T11:17:42.367Z,77.84
2019-02-24T11:21:05.209Z,77.19
2019-02-24T11:24:15.294Z,77.21
2019-02-24T11:27:23.889Z,77.37
2019-02-24T11:30:30.260Z,76.95
2019-02-24T11:33:36.909Z,76.28
2019-02-24T11:36:43.377Z,76.11
2019-02-24T11:39:50.328Z,75.54
2019-02-24T11:42:56.939Z,75.65
2019-02-24T11:46:03.496Z,75.15
2019-02-24T11:49:09.812Z,74.30
2019-02-24T11:52:16.319Z,74.30
2019-02-24T11:55:22.583Z,74.11
2019-02-24T11:58:29.075Z,72.94
2019-02-24T12:01:35.442Z,72.02
2019-02-24T12:04:41.911Z,71.23
2019-02-24T12:07:48.213Z,71.10
2019-02-24T12:10:55.054Z,70.52
2019-02-24T12:14:01.489Z,69.97
2019-02-24T12:17:08.228Z,69.78
2019-02-24T12:20:14.621Z,68.80
2019-02-24T12:23:21.316Z,69.30
2019-02-24T12:26:27.820Z,68.56
2019-02-24T12:29:34.259Z,68.51
2019-02-24T12:32:41.690Z,68.34
2019-02-24T12:35:48.180Z,67.59
2019-02-24T12:38:54.452Z,67.63
2019-02-24T12:42:00.782Z,67.48
2019-02-24T12:45:07.309Z,67.59
2019-02-24T12:48:13.811Z,67.62
2019-02-24T12:51:20.397Z,67.38
2019-02-24T12:54:27.885Z,66.42
2019-02-24T12:57:36.655Z,66.40
2019-02-24T13:00:43.380Z,65.72
2019-02-24T13:03:49.662Z,64.65
2019-02-24T13:06:57.535Z,64.39
2019-02-24T13:10:04.313Z,64.57
2019-02-24T13:13:10.885Z,65.12
2019-02-24T13:16:17.622Z,65.26
2019-02-24T13:19:24.017Z,65.37
2019-02-24T13:22:30.395Z,66.08
2019-02-24T13:25:36.904Z,66.35
2019-02-24T13:28:50.377Z,67.67
2019-02-24T13:31:51.415Z,67.83
2019-02-24T13:34:57.878Z,67.74
2019-02-24T13:38:04.648Z,67.74
2019-02-24T13:41:10.895Z,67.76
2019-02-24T13:44:17.526Z,67.63
2019-02-24T13:47:23.892Z,67.51
2019-02-24T13:50:30.320Z,67.85
2019-02-24T13:53:38.125Z,67.83
2019-02-24T13:56:45.751Z,67.68
2019-02-24T13:59:52.203Z,68.55
2019-02-24T14:02:58.998Z,68.65
2019-02-24T14:06:05.274Z,68.82
2019-02-24T14:09:11.672Z,69.14
2019-02-24T14:12:18.005Z,69.22
2019-02-24T14:15:25.085Z,69.26
2019-02-24T14:18:31.886Z,68.86
2019-02-24T14:21:38.410Z,69.22
2019-02-24T14:24:44.839Z,69.22
2019-02-24T14:27:51.283Z,69.50
2019-02-24T14:30:57.620Z,68.89
2019-02-24T14:34:04.174Z,69.24
2019-02-24T14:37:10.426Z,69.23
2019-02-24T14:40:17.094Z,69.23
2019-02-24T14:43:23.536Z,69.07
2019-02-24T14:46:29.862Z,69.64
2019-02-24T14:49:36.362Z,69.47
2019-02-24T14:52:42.774Z,69.46
2019-02-24T14:55:49.269Z,69.39
2019-02-24T14:58:55.798Z,69.77
2019-02-24T15:02:02.168Z,69.47
2019-02-24T15:05:09.399Z,69.12
2019-02-24T15:08:15.720Z,69.89
2019-02-24T15:11:22.172Z,70.28
2019-02-24T15:14:29.589Z,70.02
2019-02-24T15:17:36.523Z,70.35
2019-02-24T15:20:42.966Z,70.86
2019-02-24T15:23:49.391Z,70.98
2019-02-24T15:26:55.772Z,70.75
2019-02-24T15:30:04.711Z,71.09
2019-02-24T15:33:11.211Z,71.58
2019-02-24T15:36:18.077Z,71.80
2019-02-24T15:39:28.707Z,71.89
2019-02-24T15:42:35.399Z,71.55
2019-02-24T15:45:41.658Z,71.15
2019-02-24T15:48:48.116Z,71.52
2019-02-24T15:51:54.460Z,71.84
2019-02-24T15:55:00.949Z,71.72
2019-02-24T15:58:07.444Z,72.33
2019-02-24T16:01:13.860Z,72.35
2019-02-24T16:04:20.305Z,72.44
2019-02-24T16:07:26.684Z,72.74
2019-02-24T16:10:33.022Z,72.44
2019-02-24T16:13:39.703Z,72.69
2019-02-24T16:16:45.979Z,73.14
2019-02-24T16:19:52.770Z,73.49
2019-02-24T16:22:59.420Z,73.76
2019-02-24T16:26:05.809Z,73.66
2019-02-24T16:29:12.071Z,73.77
2019-02-24T16:32:18.611Z,73.52
2019-02-24T16:35:24.964Z,74.73
2019-02-24T16:38:31.516Z,74.89
2019-02-24T16:41:37.853Z,75.11
2019-02-24T16:44:44.374Z,75.23
2019-02-24T16:47:50.702Z,75.39
2019-02-24T16:50:57.126Z,76.11
2019-02-24T16:54:03.486Z,76.89
2019-02-24T16:57:10.148Z,76.59
2019-02-24T17:00:18.080Z,76.70
2019-02-24T17:03:24.443Z,77.01
2019-02-24T17:06:30.744Z,77.88
2019-02-24T17:09:37.297Z,77.52
2019-02-24T17:12:43.581Z,78.12
2019-02-24T17:15:50.053Z,78.35
2019-02-24T17:18:56.403Z,78.52
2019-02-24T17:22:03.286Z,78.53
2019-02-24T17:25:10.156Z,78.46
2019-02-24T17:28:16.742Z,78.48
2019-02-24T17:31:28.311Z,78.71
2019-02-24T17:34:31.197Z,78.63
2019-02-24T17:37:37.542Z,78.73
2019-02-24T17:40:43.898Z,78.92
2019-02-24T17:43:50.263Z,78.65
2019-02-24T17:46:56.849Z,78.30
2019-02-24T17:50:03.109Z,79.09
2019-02-24T17:53:09.662Z,79.21
2019-02-24T17:56:16.043Z,79.24
2019-02-24T17:59:22.567Z,79.28
2019-02-24T18:02:28.863Z,79.88
2019-02-24T18:05:35.349Z,79.40
2019-02-24T18:08:41.808Z,79.77
2019-02-24T18:11:48.435Z,79.79
2019-02-24T18:14:54.935Z,80.17
2019-02-24T18:18:01.369Z,79.99
2019-02-24T18:21:07.785Z,79.75
2019-02-24T18:24:16.129Z,79.63
2019-02-24T18:27:23.831Z,79.79
2019-02-24T18:30:30.446Z,80.17
2019-02-24T18:33:36.885Z,80.15
2019-02-24T18:36:43.263Z,80.45
2019-02-24T18:39:50.834Z,79.52
2019-02-24T18:43:00.481Z,79.96
2019-02-24T18:46:06.980Z,79.83
2019-02-24T18:49:13.531Z,79.64
2019-02-24T18:52:20.032Z,79.60
2019-02-24T18:55:26.378Z,79.40
2019-02-24T18:58:35.122Z,79.25
2019-02-24T19:01:41.937Z,79.54
2019-02-24T19:04:48.531Z,79.24
2019-02-24T19:07:55.438Z,79.00
2019-02-24T19:11:01.891Z,79.07
2019-02-24T19:14:08.370Z,79.38
2019-02-24T19:17:15.014Z,79.84
2019-02-24T19:20:22.615Z,79.91
2019-02-24T19:23:29.186Z,79.70
2019-02-24T19:26:36.092Z,79.93
2019-02-24T19:29:42.953Z,79.95
2019-02-24T19:32:49.704Z,79.91
2019-02-24T19:35:57.933Z,79.92
2019-02-24T19:39:05.055Z,79.70
2019-02-24T19:42:13.061Z,79.78
2019-02-24T19:45:19.525Z,80.04
2019-02-24T19:48:26.564Z,79.69
2019-02-24T19:51:33.073Z,79.48
2019-02-24T19:54:39.330Z,79.60
2019-02-24T19:57:46.882Z,79.78
2019-02-24T20:00:54.749Z,79.64
2019-02-24T20:04:01.368Z,79.48
2019-02-24T20:07:07.713Z,79.97
2019-02-24T20:10:15.576Z,80.15
2019-02-24T20:13:22.063Z,79.57
2019-02-24T20:16:28.549Z,79.77
2019-02-24T20:19:34.978Z,79.82
2019-02-24T20:22:41.377Z,79.79
2019-02-24T20:25:47.724Z,80.07
2019-02-24T20:28:54.493Z,80.06
2019-02-24T20:32:02.259Z,80.08
2019-02-24T20:35:09.043Z,79.99
2019-02-24T20:38:15.508Z,80.09
2019-02-24T20:41:21.910Z,80.07
2019-02-24T20:44:28.287Z,80.16
2019-02-24T20:47:34.726Z,79.98
2019-02-24T20:50:41.108Z,80.21
2019-02-24T20:53:47.715Z,79.92
2019-02-24T20:56:54.096Z,80.00
2019-02-24T21:00:00.537Z,79.92
2019-02-24T21:03:08.548Z,80.48
2019-02-24T21:06:15.221Z,80.20
2019-02-24T21:09:21.572Z,80.45
2019-02-24T21:12:27.884Z,80.21
2019-02-24T21:15:34.230Z,80.21
2019-02-24T21:18:40.844Z,79.86
2019-02-24T21:21:47.223Z,79.83
2019-02-24T21:24:53.750Z,79.74
2019-02-24T21:28:00.171Z,79.09
2019-02-24T21:31:07.159Z,79.10
2019-02-24T21:34:13.798Z,79.31
2019-02-24T21:37:20.124Z,79.06
2019-02-24T21:40:26.480Z,79.06
2019-02-24T21:43:33.013Z,78.75
2019-02-24T21:46:39.362Z,79.33
2019-02-24T21:49:46.129Z,79.01
2019-02-24T21:52:52.498Z,78.49
2019-02-24T21:55:59.014Z,78.33
2019-02-24T21:59:05.378Z,78.10
2019-02-24T22:02:11.810Z,78.03
2019-02-24T22:05:18.349Z,77.64
2019-02-24T22:08:24.836Z,77.56
2019-02-24T22:11:31.250Z,77.49
2019-02-24T22:14:37.799Z,77.44
2019-02-24T22:17:44.223Z,77.57
2019-02-24T22:20:50.674Z,77.50
2019-02-24T22:23:56.929Z,77.36
2019-02-24T22:27:09.436Z,77.13
2019-02-24T22:30:20.688Z,76.86
2019-02-24T22:33:27.346Z,76.60
2019-02-24T22:36:33.795Z,76.20
2019-02-24T22:39:40.041Z,76.00
2019-02-24T22:42:47.641Z,75.89
2019-02-24T22:45:54.077Z,75.49
2019-02-24T22:49:00.410Z,75.29
2019-02-24T22:52:06.789Z,75.21
2019-02-24T22:55:13.225Z,75.45
2019-02-24T22:58:19.735Z,75.63
2019-02-24T23:01:32.552Z,75.52
2019-02-24T23:04:40.389Z,75.48
2019-02-24T23:07:49.828Z,75.98
2019-02-24T23:10:57.817Z,76.31
2019-02-24T23:14:04.171Z,76.34
2019-02-24T23:17:10.603Z,76.17
2019-02-24T23:20:16.982Z,76.30
2019-02-24T23:23:23.309Z,76.74
2019-02-24T23:26:29.655Z,77.18
2019-02-24T23:29:36.229Z,77.47
2019-02-24T23:32:42.554Z,77.87
2019-02-24T23:35:49.342Z,78.07
2019-02-24T23:38:55.855Z,78.32
2019-02-24T23:42:02.231Z,78.13
2019-02-24T23:45:10.597Z,78.08
2019-02-24T23:48:17.155Z,78.29
2019-02-24T23:51:23.499Z,78.39
2019-02-24T23:54:29.750Z,78.06
2019-02-24T23:57:36.093Z,78.08
